createdAt,value
2018-12-03T00:00:19.125Z,12.09
2018-12-03T00:01:19.000Z,12.1
2018-12-03T00:02:18.966Z,12.1
2018-12-03T00:03:18.736Z,12.15
2018-12-03T00:04:18.843Z,12.17
2018-12-03T00:05:19.182Z,12.16
2018-12-03T00:06:18.846Z,12.16
2018-12-03T00:07:18.865Z,12.15
2018-12-03T00:08:18.954Z,12.16
2018-12-03T00:09:18.752Z,12.15
2018-12-03T00:10:19.005Z,12.15
2018-12-03T00:11:18.960Z,12.15
2018-12-03T00:12:18.884Z,12.15
2018-12-03T00:13:18.779Z,12.14
2018-12-03T00:14:18.922Z,12.15
2018-12-03T00:15:18.803Z,12.16
2018-12-03T00:16:18.738Z,12.15
2018-12-03T00:17:18.773Z,12.16
2018-12-03T00:18:19.234Z,12.14
2018-12-03T00:19:18.862Z,12.14
2018-12-03T00:20:18.954Z,12.15
2018-12-03T00:21:18.863Z,12.16
2018-12-03T00:22:18.733Z,12.17
2018-12-03T00:23:18.934Z,12.16
2018-12-03T00:24:18.957Z,12.18
2018-12-03T00:25:18.959Z,12.18
2018-12-03T00:26:18.859Z,12.21
2018-12-03T00:27:18.731Z,12.24
2018-12-03T00:28:18.896Z,12.25
2018-12-03T00:29:18.966Z,12.23
2018-12-03T00:30:18.768Z,12.27
2018-12-03T00:31:18.807Z,12.27
2018-12-03T00:32:18.915Z,12.26
2018-12-03T00:33:18.810Z,12.28
2018-12-03T00:34:19.014Z,12.27
2018-12-03T00:35:18.930Z,12.26
2018-12-03T00:36:18.709Z,12.25
2018-12-03T00:37:18.746Z,12.26
2018-12-03T00:38:18.775Z,12.26
2018-12-03T00:39:18.803Z,12.26
2018-12-03T00:40:18.894Z,12.26
2018-12-03T00:41:18.843Z,12.25
2018-12-03T00:42:18.750Z,12.25
2018-12-03T00:43:18.708Z,12.24
2018-12-03T00:44:18.988Z,12.22
2018-12-03T00:45:18.725Z,12.24
2018-12-03T00:46:18.765Z,12.25
2018-12-03T00:47:19.015Z,12.26
2018-12-03T00:48:18.909Z,12.23
2018-12-03T00:49:18.774Z,12.25
2018-12-03T00:50:18.871Z,12.24
2018-12-03T00:51:18.880Z,12.24
2018-12-03T00:52:18.752Z,12.22
2018-12-03T00:53:19.067Z,12.25
2018-12-03T00:54:18.901Z,12.24
2018-12-03T00:55:18.911Z,12.21
2018-12-03T00:56:18.747Z,12.21
2018-12-03T00:57:18.877Z,12.2
2018-12-03T00:58:18.793Z,12.21
2018-12-03T00:59:18.982Z,12.2
2018-12-03T01:00:18.900Z,12.2
2018-12-03T01:01:18.684Z,12.2
2018-12-03T01:02:18.862Z,12.2
2018-12-03T01:03:19.002Z,12.2
2018-12-03T01:04:18.907Z,12.2
2018-12-03T01:05:18.697Z,12.2
2018-12-03T01:06:18.870Z,12.2
2018-12-03T01:07:18.688Z,12.2
2018-12-03T01:08:18.798Z,12.2
2018-12-03T01:09:19.072Z,12.2
2018-12-03T01:10:18.766Z,12.18
2018-12-03T01:11:18.815Z,12.19
2018-12-03T01:12:18.885Z,12.19
2018-12-03T01:13:18.708Z,12.18
2018-12-03T01:14:18.881Z,12.19
2018-12-03T01:15:18.655Z,12.18
2018-12-03T01:16:18.881Z,12.17
2018-12-03T01:17:18.754Z,12.19
2018-12-03T01:18:18.685Z,12.19
2018-12-03T01:19:18.761Z,12.19
2018-12-03T01:20:18.723Z,12.18
2018-12-03T01:21:18.778Z,12.16
2018-12-03T01:22:18.714Z,12.18
2018-12-03T01:23:18.690Z,12.16
2018-12-03T01:24:18.698Z,12.18
2018-12-03T01:25:18.740Z,12.17
2018-12-03T01:26:18.745Z,12.16
2018-12-03T01:27:18.698Z,12.16
2018-12-03T01:28:19.042Z,12.16
2018-12-03T01:29:19.002Z,12.18
2018-12-03T01:30:18.742Z,12.16
2018-12-03T01:31:18.641Z,12.16
2018-12-03T01:32:18.669Z,12.16
2018-12-03T01:33:18.689Z,12.15
2018-12-03T01:34:18.626Z,12.15
2018-12-03T01:35:18.865Z,12.15
2018-12-03T01:36:19.089Z,12.14
2018-12-03T01:37:18.733Z,12.14
2018-12-03T01:38:18.729Z,12.15
2018-12-03T01:39:18.669Z,12.14
2018-12-03T01:40:18.673Z,12.19
2018-12-03T01:41:18.682Z,12.15
2018-12-03T01:42:18.606Z,12.19
2018-12-03T01:43:18.829Z,12.15
2018-12-03T01:44:18.631Z,12.15
2018-12-03T01:45:18.745Z,12.17
2018-12-03T01:46:18.817Z,12.15
2018-12-03T01:47:18.639Z,12.15
2018-12-03T01:48:19.516Z,12.16
2018-12-03T01:49:18.944Z,12.18
2018-12-03T01:50:18.877Z,12.2
2018-12-03T01:51:18.763Z,12.18
2018-12-03T01:52:18.829Z,12.18
2018-12-03T01:53:18.850Z,12.19
2018-12-03T01:54:18.701Z,12.19
2018-12-03T01:55:18.687Z,12.18
2018-12-03T01:56:18.855Z,12.19
2018-12-03T01:57:19.017Z,12.2
2018-12-03T01:58:18.868Z,12.19
2018-12-03T01:59:18.737Z,12.2
2018-12-03T02:00:18.782Z,12.2
2018-12-03T02:01:18.762Z,12.22
2018-12-03T02:02:18.691Z,12.22
2018-12-03T02:03:18.746Z,12.25
2018-12-03T02:04:18.699Z,12.22
2018-12-03T02:05:18.678Z,12.21
2018-12-03T02:06:18.713Z,12.21
2018-12-03T02:07:18.834Z,12.21
2018-12-03T02:08:18.896Z,12.2
2018-12-03T02:09:18.763Z,12.2
2018-12-03T02:10:18.698Z,12.2
2018-12-03T02:11:18.626Z,12.21
2018-12-03T02:12:18.809Z,12.25
2018-12-03T02:13:18.653Z,12.21
2018-12-03T02:14:19.171Z,12.22
2018-12-03T02:15:18.962Z,12.22
2018-12-03T02:16:18.654Z,12.22
2018-12-03T02:17:18.635Z,12.24
2018-12-03T02:18:18.698Z,12.22
2018-12-03T02:19:18.923Z,12.21
2018-12-03T02:20:18.671Z,12.25
2018-12-03T02:21:18.643Z,12.25
2018-12-03T02:22:18.718Z,12.25
2018-12-03T02:23:18.741Z,12.21
2018-12-03T02:24:18.810Z,12.24
2018-12-03T02:25:18.672Z,12.25
2018-12-03T02:26:18.700Z,12.23
2018-12-03T02:27:18.685Z,12.24
2018-12-03T02:28:18.675Z,12.23
2018-12-03T02:29:18.616Z,12.21
2018-12-03T02:30:18.641Z,12.21
2018-12-03T02:31:18.677Z,12.21
2018-12-03T02:32:18.840Z,12.22
2018-12-03T02:33:18.670Z,12.24
2018-12-03T02:34:18.681Z,12.25
2018-12-03T02:35:18.661Z,12.26
2018-12-03T02:36:18.587Z,12.25
2018-12-03T02:37:18.729Z,12.25
2018-12-03T02:38:18.845Z,12.26
2018-12-03T02:39:18.836Z,12.24
2018-12-03T02:40:18.673Z,12.26
2018-12-03T02:41:18.637Z,12.26
2018-12-03T02:42:18.775Z,12.26
2018-12-03T02:43:18.764Z,12.28
2018-12-03T02:44:18.621Z,12.24
2018-12-03T02:45:18.742Z,12.26
2018-12-03T02:46:18.783Z,12.27
2018-12-03T02:47:18.642Z,12.3
2018-12-03T02:48:18.716Z,12.26
2018-12-03T02:49:18.634Z,12.28
2018-12-03T02:50:18.695Z,12.3
2018-12-03T02:51:18.640Z,12.27
2018-12-03T02:52:18.611Z,12.27
2018-12-03T02:53:18.594Z,12.27
2018-12-03T02:54:18.598Z,12.27
2018-12-03T02:55:18.658Z,12.27
2018-12-03T02:56:18.584Z,12.27
2018-12-03T02:57:18.622Z,12.3
2018-12-03T02:58:18.597Z,12.3
2018-12-03T02:59:18.607Z,12.31
2018-12-03T03:00:18.571Z,12.28
2018-12-03T03:01:18.624Z,12.29
2018-12-03T03:02:18.896Z,12.29
2018-12-03T03:03:18.602Z,12.3
2018-12-03T03:04:18.559Z,12.31
2018-12-03T03:05:18.573Z,12.32
2018-12-03T03:06:18.541Z,12.32
2018-12-03T03:07:18.691Z,12.31
2018-12-03T03:08:18.545Z,12.3
2018-12-03T03:09:18.632Z,12.31
2018-12-03T03:10:18.565Z,12.33
2018-12-03T03:11:18.774Z,12.32
2018-12-03T03:12:18.590Z,12.32
2018-12-03T03:13:18.698Z,12.32
2018-12-03T03:14:18.762Z,12.33
2018-12-03T03:15:18.839Z,12.32
2018-12-03T03:16:18.679Z,12.32
2018-12-03T03:17:18.599Z,12.32
2018-12-03T03:18:18.733Z,12.33
2018-12-03T03:19:18.735Z,12.32
2018-12-03T03:20:18.810Z,12.33
2018-12-03T03:21:18.655Z,12.32
2018-12-03T03:22:18.618Z,12.31
2018-12-03T03:23:18.628Z,12.32
2018-12-03T03:24:18.603Z,12.32
2018-12-03T03:25:18.733Z,12.31
2018-12-03T03:26:18.537Z,12.32
2018-12-03T03:27:18.672Z,12.31
2018-12-03T03:28:18.549Z,12.33
2018-12-03T03:29:18.534Z,12.32
2018-12-03T03:30:18.771Z,12.32
2018-12-03T03:31:18.595Z,12.31
2018-12-03T03:32:18.580Z,12.28
2018-12-03T03:33:18.733Z,12.32
2018-12-03T03:34:18.618Z,12.33
2018-12-03T03:35:18.549Z,12.33
2018-12-03T03:36:18.686Z,12.33
2018-12-03T03:37:18.567Z,12.33
2018-12-03T03:38:18.558Z,12.32
2018-12-03T03:39:18.652Z,12.32
2018-12-03T03:40:18.551Z,12.32
2018-12-03T03:41:18.641Z,12.32
2018-12-03T03:42:18.509Z,12.29
2018-12-03T03:43:18.733Z,12.31
2018-12-03T03:44:18.649Z,12.29
2018-12-03T03:45:18.734Z,12.32
2018-12-03T03:46:18.611Z,12.31
2018-12-03T03:47:18.666Z,12.33
2018-12-03T03:48:18.813Z,12.33
2018-12-03T03:49:18.518Z,12.36
2018-12-03T03:50:18.627Z,12.33
2018-12-03T03:51:18.840Z,12.33
2018-12-03T03:52:18.562Z,12.33
2018-12-03T03:53:18.601Z,12.33
2018-12-03T03:54:18.487Z,12.33
2018-12-03T03:55:18.510Z,12.33
2018-12-03T03:56:18.569Z,12.32
2018-12-03T03:57:18.715Z,12.33
2018-12-03T03:58:18.722Z,12.33
2018-12-03T03:59:18.695Z,12.32
2018-12-03T04:00:18.530Z,12.33
2018-12-03T04:01:18.843Z,12.33
2018-12-03T04:02:18.767Z,12.37
2018-12-03T04:03:18.460Z,12.34
2018-12-03T04:04:18.696Z,12.36
2018-12-03T04:05:18.891Z,12.34
2018-12-03T04:06:18.635Z,12.35
2018-12-03T04:07:18.450Z,12.33
2018-12-03T04:08:18.566Z,12.33
2018-12-03T04:09:18.609Z,12.34
2018-12-03T04:10:18.705Z,12.33
2018-12-03T04:11:18.521Z,12.32
2018-12-03T04:12:18.514Z,12.32
2018-12-03T04:13:18.803Z,12.33
2018-12-03T04:14:18.607Z,12.33
2018-12-03T04:15:18.750Z,12.32
2018-12-03T04:16:18.552Z,12.31
2018-12-03T04:17:18.523Z,12.31
2018-12-03T04:18:18.590Z,12.32
2018-12-03T04:19:18.468Z,12.29
2018-12-03T04:20:18.681Z,12.3
2018-12-03T04:21:18.681Z,12.3
2018-12-03T04:22:18.544Z,12.28
2018-12-03T04:23:18.636Z,12.3
2018-12-03T04:24:18.805Z,12.27
2018-12-03T04:25:19.315Z,12.28
2018-12-03T04:26:19.279Z,12.28
2018-12-03T04:27:18.541Z,12.27
2018-12-03T04:28:18.447Z,12.26
2018-12-03T04:29:18.661Z,12.26
2018-12-03T04:30:18.673Z,12.26
2018-12-03T04:31:18.557Z,12.25
2018-12-03T04:32:18.588Z,12.26
2018-12-03T04:33:18.464Z,12.26
2018-12-03T04:34:18.473Z,12.25
2018-12-03T04:35:18.471Z,12.25
2018-12-03T04:36:18.607Z,12.26
2018-12-03T04:37:18.491Z,12.25
2018-12-03T04:38:18.431Z,12.23
2018-12-03T04:39:18.476Z,12.24
2018-12-03T04:40:18.568Z,12.23
2018-12-03T04:41:18.440Z,12.25
2018-12-03T04:42:18.560Z,12.25
2018-12-03T04:43:18.540Z,12.26
2018-12-03T04:44:18.541Z,12.26
2018-12-03T04:45:18.513Z,12.25
2018-12-03T04:46:18.463Z,12.27
2018-12-03T04:47:18.495Z,12.26
2018-12-03T04:48:18.571Z,12.26
2018-12-03T04:49:18.409Z,12.27
2018-12-03T04:50:18.625Z,12.26
2018-12-03T04:51:18.487Z,12.27
2018-12-03T04:52:18.454Z,12.27
2018-12-03T04:53:18.602Z,12.27
2018-12-03T04:54:19.316Z,12.27
2018-12-03T04:55:18.465Z,12.27
2018-12-03T04:56:18.525Z,12.26
2018-12-03T04:57:18.572Z,12.25
2018-12-03T04:58:18.526Z,12.26
2018-12-03T04:59:18.459Z,12.26
2018-12-03T05:00:18.634Z,12.26
2018-12-03T05:01:18.845Z,12.25
2018-12-03T05:02:18.756Z,12.27
2018-12-03T05:03:18.644Z,12.23
2018-12-03T05:04:18.436Z,12.26
2018-12-03T05:05:18.529Z,12.23
2018-12-03T05:06:18.655Z,12.24
2018-12-03T05:07:18.409Z,12.25
2018-12-03T05:08:18.637Z,12.23
2018-12-03T05:09:18.575Z,12.25
2018-12-03T05:10:18.453Z,12.25
2018-12-03T05:11:18.622Z,12.26
2018-12-03T05:12:18.532Z,12.23
2018-12-03T05:13:19.277Z,12.26
2018-12-03T05:14:18.482Z,12.23
2018-12-03T05:15:18.493Z,12.25
2018-12-03T05:16:18.492Z,12.26
2018-12-03T05:17:18.576Z,12.26
2018-12-03T05:18:18.407Z,12.26
2018-12-03T05:19:18.586Z,12.26
2018-12-03T05:20:18.572Z,12.26
2018-12-03T05:21:18.517Z,12.27
2018-12-03T05:22:18.410Z,12.27
2018-12-03T05:23:18.444Z,12.27
2018-12-03T05:24:18.641Z,12.27
2018-12-03T05:25:20.029Z,12.27
2018-12-03T05:26:18.535Z,12.27
2018-12-03T05:27:18.573Z,12.27
2018-12-03T05:28:18.445Z,12.26
2018-12-03T05:29:18.634Z,12.26
2018-12-03T05:30:18.373Z,12.26
2018-12-03T05:31:18.425Z,12.27
2018-12-03T05:32:18.444Z,12.29
2018-12-03T05:33:18.534Z,12.27
2018-12-03T05:34:18.409Z,12.3
2018-12-03T05:35:18.482Z,12.28
2018-12-03T05:36:18.456Z,12.28
2018-12-03T05:37:18.605Z,12.3
2018-12-03T05:38:18.370Z,12.28
2018-12-03T05:39:18.494Z,12.3
2018-12-03T05:40:18.624Z,12.27
2018-12-03T05:41:18.478Z,12.27
2018-12-03T05:42:18.373Z,12.27
2018-12-03T05:43:18.391Z,12.32
2018-12-03T05:44:19.290Z,12.33
2018-12-03T05:45:18.433Z,12.35
2018-12-03T05:46:18.428Z,12.38
2018-12-03T05:47:18.430Z,12.38
2018-12-03T05:48:18.508Z,12.36
2018-12-03T05:49:18.467Z,12.37
2018-12-03T05:50:18.431Z,12.36
2018-12-03T05:51:18.541Z,12.34
2018-12-03T05:52:18.484Z,12.34
2018-12-03T05:53:18.516Z,12.32
2018-12-03T05:54:18.385Z,12.3
2018-12-03T05:55:18.639Z,12.32
2018-12-03T05:56:18.341Z,12.31
2018-12-03T05:57:18.427Z,12.3
2018-12-03T05:58:18.511Z,12.29
2018-12-03T05:59:18.500Z,12.28
2018-12-03T06:00:18.392Z,12.27
2018-12-03T06:01:18.413Z,12.28
2018-12-03T06:02:18.732Z,12.26
2018-12-03T06:03:18.398Z,12.26
2018-12-03T06:04:18.695Z,12.26
2018-12-03T06:05:19.197Z,12.26
2018-12-03T06:06:18.387Z,12.26
2018-12-03T06:07:18.437Z,12.25
2018-12-03T06:08:18.470Z,12.24
2018-12-03T06:09:18.610Z,12.24
2018-12-03T06:10:18.399Z,12.21
2018-12-03T06:11:18.428Z,12.24
2018-12-03T06:12:18.611Z,12.22
2018-12-03T06:13:18.541Z,12.23
2018-12-03T06:14:18.352Z,12.24
2018-12-03T06:15:18.539Z,12.25
2018-12-03T06:16:18.318Z,12.25
2018-12-03T06:17:18.346Z,12.25
2018-12-03T06:18:18.276Z,12.23
2018-12-03T06:19:18.338Z,12.25
2018-12-03T06:20:18.334Z,12.26
2018-12-03T06:21:18.628Z,12.27
2018-12-03T06:22:18.310Z,12.26
2018-12-03T06:23:18.347Z,12.28
2018-12-03T06:24:18.297Z,12.27
2018-12-03T06:25:18.436Z,12.26
2018-12-03T06:26:18.450Z,12.26
2018-12-03T06:27:18.344Z,12.25
2018-12-03T06:28:18.347Z,12.24
2018-12-03T06:29:19.193Z,12.26
2018-12-03T06:30:18.369Z,12.25
2018-12-03T06:31:18.535Z,12.25
2018-12-03T06:32:18.459Z,12.26
2018-12-03T06:33:18.649Z,12.26
2018-12-03T06:34:19.424Z,12.28
2018-12-03T06:35:18.370Z,12.27
2018-12-03T06:36:18.360Z,12.27
2018-12-03T06:37:18.525Z,12.27
2018-12-03T06:38:18.447Z,12.27
2018-12-03T06:39:18.511Z,12.29
2018-12-03T06:40:19.223Z,12.28
2018-12-03T06:41:18.687Z,12.27
2018-12-03T06:42:18.550Z,12.28
2018-12-03T06:43:18.303Z,12.3
2018-12-03T06:44:18.286Z,12.29
2018-12-03T06:45:18.376Z,12.3
2018-12-03T06:46:18.573Z,12.29
2018-12-03T06:47:18.450Z,12.27
2018-12-03T06:48:18.658Z,12.28
2018-12-03T06:49:18.553Z,12.26
2018-12-03T06:50:18.309Z,12.26
2018-12-03T06:51:18.299Z,12.25
2018-12-03T06:52:18.496Z,12.23
2018-12-03T06:53:18.465Z,12.24
2018-12-03T06:54:18.716Z,12.24
2018-12-03T06:55:18.349Z,12.22
2018-12-03T06:56:18.382Z,12.2
2018-12-03T06:57:18.347Z,12.2
2018-12-03T06:58:18.317Z,12.2
2018-12-03T06:59:18.473Z,12.22
2018-12-03T07:00:18.394Z,12.19
2018-12-03T07:01:18.332Z,12.19
2018-12-03T07:02:18.432Z,12.2
2018-12-03T07:03:18.387Z,12.19
2018-12-03T07:04:18.513Z,12.19
2018-12-03T07:05:18.454Z,12.19
2018-12-03T07:06:18.358Z,12.22
2018-12-03T07:07:18.443Z,12.21
2018-12-03T07:08:18.504Z,12.21
2018-12-03T07:09:18.615Z,12.21
2018-12-03T07:10:18.349Z,12.21
2018-12-03T07:11:18.301Z,12.23
2018-12-03T07:12:18.325Z,12.21
2018-12-03T07:13:18.460Z,12.2
2018-12-03T07:14:18.318Z,12.21
2018-12-03T07:15:18.338Z,12.23
2018-12-03T07:16:18.306Z,12.24
2018-12-03T07:17:18.347Z,12.25
2018-12-03T07:18:18.427Z,12.25
2018-12-03T07:19:18.415Z,12.23
2018-12-03T07:20:18.420Z,12.24
2018-12-03T07:21:19.157Z,12.24
2018-12-03T07:22:18.699Z,12.25
2018-12-03T07:23:18.405Z,12.26
2018-12-03T07:24:18.354Z,12.25
2018-12-03T07:25:18.228Z,12.26
2018-12-03T07:26:18.332Z,12.23
2018-12-03T07:27:18.341Z,12.25
2018-12-03T07:28:18.340Z,12.25
2018-12-03T07:29:18.448Z,12.25
2018-12-03T07:30:18.293Z,12.25
2018-12-03T07:31:18.497Z,12.24
2018-12-03T07:32:18.266Z,12.21
2018-12-03T07:33:18.450Z,12.21
2018-12-03T07:34:18.219Z,12.22
2018-12-03T07:35:19.032Z,12.21
2018-12-03T07:36:18.256Z,12.22
2018-12-03T07:37:18.255Z,12.23
2018-12-03T07:38:19.092Z,12.21
2018-12-03T07:39:18.434Z,12.21
2018-12-03T07:40:18.440Z,12.21
2018-12-03T07:41:18.283Z,12.23
2018-12-03T07:42:18.279Z,12.22
2018-12-03T07:43:18.336Z,12.25
2018-12-03T07:44:18.309Z,12.25
2018-12-03T07:45:18.435Z,12.3
2018-12-03T07:46:18.406Z,12.31
2018-12-03T07:47:18.278Z,12.29
2018-12-03T07:48:18.285Z,12.32
2018-12-03T07:49:18.278Z,12.32
2018-12-03T07:50:18.644Z,12.3
2018-12-03T07:51:18.271Z,12.31
2018-12-03T07:52:18.298Z,12.31
2018-12-03T07:53:18.305Z,12.29
2018-12-03T07:54:18.247Z,12.3
2018-12-03T07:55:18.271Z,12.32
2018-12-03T07:56:18.242Z,12.32
2018-12-03T07:57:18.208Z,12.32
2018-12-03T07:58:18.274Z,12.32
2018-12-03T07:59:18.206Z,12.3
2018-12-03T08:00:18.271Z,12.32
2018-12-03T08:01:18.291Z,12.33
2018-12-03T08:02:18.242Z,12.33
2018-12-03T08:03:18.206Z,12.33
2018-12-03T08:04:18.292Z,12.32
2018-12-03T08:05:18.316Z,12.32
2018-12-03T08:06:18.234Z,12.32
2018-12-03T08:07:18.300Z,12.32
2018-12-03T08:08:18.516Z,12.31
2018-12-03T08:09:18.394Z,12.32
2018-12-03T08:10:18.366Z,12.31
2018-12-03T08:11:18.459Z,12.31
2018-12-03T08:12:18.335Z,12.32
2018-12-03T08:13:18.284Z,12.32
2018-12-03T08:14:18.434Z,12.32
2018-12-03T08:15:18.293Z,12.32
2018-12-03T08:16:18.232Z,12.31
2018-12-03T08:17:18.524Z,12.33
2018-12-03T08:18:20.476Z,12.33
2018-12-03T08:19:18.567Z,12.34
2018-12-03T08:20:18.390Z,12.33
2018-12-03T08:21:18.533Z,12.34
2018-12-03T08:22:18.490Z,12.37
2018-12-03T08:23:18.275Z,12.37
2018-12-03T08:24:18.330Z,12.37
2018-12-03T08:25:19.106Z,12.38
2018-12-03T08:26:20.693Z,12.38
2018-12-03T08:27:18.387Z,12.39
2018-12-03T08:28:18.328Z,12.4
2018-12-03T08:29:18.177Z,12.39
2018-12-03T08:30:18.406Z,12.38
2018-12-03T08:31:18.431Z,12.37
2018-12-03T08:32:18.376Z,12.38
2018-12-03T08:33:18.278Z,12.38
2018-12-03T08:34:18.201Z,12.37
2018-12-03T08:35:18.307Z,12.38
2018-12-03T08:36:18.421Z,12.35
2018-12-03T08:37:18.263Z,12.36
2018-12-03T08:38:18.288Z,12.38
2018-12-03T08:39:18.234Z,12.37
2018-12-03T08:40:18.344Z,12.35
2018-12-03T08:41:18.566Z,12.37
2018-12-03T08:42:19.377Z,12.35
2018-12-03T08:43:18.277Z,12.35
2018-12-03T08:44:18.253Z,12.37
2018-12-03T08:45:18.446Z,12.35
2018-12-03T08:46:18.422Z,12.37
2018-12-03T08:47:18.188Z,12.34
2018-12-03T08:48:18.231Z,12.37
2018-12-03T08:49:18.288Z,12.36
2018-12-03T08:50:18.239Z,12.37
2018-12-03T08:51:18.526Z,12.37
2018-12-03T08:52:18.173Z,12.37
2018-12-03T08:53:19.207Z,12.37
2018-12-03T08:54:18.306Z,12.38
2018-12-03T08:55:18.289Z,12.37
2018-12-03T08:56:18.389Z,12.36
2018-12-03T08:57:19.505Z,12.35
2018-12-03T08:58:21.442Z,12.38
2018-12-03T08:59:18.502Z,12.39
2018-12-03T09:00:19.005Z,12.39
2018-12-03T09:01:18.544Z,12.39
2018-12-03T09:02:18.307Z,12.41
2018-12-03T09:03:18.195Z,12.39
2018-12-03T09:04:18.377Z,12.38
2018-12-03T09:05:22.643Z,12.38
2018-12-03T09:06:20.799Z,12.38
2018-12-03T09:07:20.715Z,12.38
2018-12-03T09:08:18.170Z,12.42
2018-12-03T09:09:18.254Z,12.44
2018-12-03T09:10:18.546Z,12.45
2018-12-03T09:11:18.368Z,12.45
2018-12-03T09:12:22.312Z,12.45
2018-12-03T09:13:18.365Z,12.46
2018-12-03T09:14:18.403Z,12.46
2018-12-03T09:15:18.327Z,12.46
2018-12-03T09:16:18.165Z,12.46
2018-12-03T09:17:18.217Z,12.48
2018-12-03T09:18:19.029Z,12.49
2018-12-03T09:19:19.027Z,12.5
2018-12-03T09:20:18.356Z,12.49
2018-12-03T09:21:18.409Z,12.47
2018-12-03T09:22:18.260Z,12.49
2018-12-03T09:23:21.713Z,12.49
2018-12-03T09:24:18.341Z,12.47
2018-12-03T09:25:19.279Z,12.51
2018-12-03T09:26:18.232Z,12.5
2018-12-03T09:27:18.448Z,12.47
2018-12-03T09:28:18.273Z,12.46
2018-12-03T09:29:18.266Z,12.45
2018-12-03T09:30:18.218Z,12.46
2018-12-03T09:31:18.259Z,12.46
2018-12-03T09:32:18.210Z,12.45
2018-12-03T09:33:18.214Z,12.45
2018-12-03T09:34:18.289Z,12.45
2018-12-03T09:35:21.468Z,12.44
2018-12-03T09:36:18.219Z,12.45
2018-12-03T09:37:19.270Z,12.43
2018-12-03T09:38:18.201Z,12.44
2018-12-03T09:39:18.208Z,12.44
2018-12-03T09:40:18.247Z,12.44
2018-12-03T09:41:18.172Z,12.4
2018-12-03T09:42:18.188Z,12.39
2018-12-03T09:43:18.303Z,12.38
2018-12-03T09:44:18.295Z,12.36
2018-12-03T09:45:18.317Z,12.32
2018-12-03T09:46:18.132Z,12.3
2018-12-03T09:47:18.180Z,12.27
2018-12-03T09:48:18.192Z,12.25
2018-12-03T09:49:18.314Z,12.24
2018-12-03T09:50:18.343Z,12.2
2018-12-03T09:51:18.162Z,12.21
2018-12-03T09:52:18.366Z,12.19
2018-12-03T09:53:18.078Z,12.14
2018-12-03T09:54:18.085Z,12.13
2018-12-03T09:55:18.205Z,12.12
2018-12-03T09:56:18.135Z,12.09
2018-12-03T09:57:18.413Z,12.1
2018-12-03T09:58:18.109Z,12.08
2018-12-03T09:59:18.273Z,12.07
2018-12-03T10:00:18.199Z,12.07
2018-12-03T10:01:18.238Z,12.06
2018-12-03T10:02:18.261Z,12.07
2018-12-03T10:03:18.412Z,12.07
2018-12-03T10:04:18.115Z,12.04
2018-12-03T10:05:18.198Z,12.06
2018-12-03T10:06:18.185Z,12.06
2018-12-03T10:07:18.228Z,12.05
2018-12-03T10:08:18.134Z,12.09
2018-12-03T10:09:18.206Z,12.08
2018-12-03T10:10:18.252Z,12.08
2018-12-03T10:11:18.581Z,12.07
2018-12-03T10:12:18.659Z,12.07
2018-12-03T10:13:18.405Z,12.06
2018-12-03T10:14:18.178Z,12.06
2018-12-03T10:15:18.232Z,12.06
2018-12-03T10:16:18.084Z,12.07
2018-12-03T10:17:18.195Z,12.08
2018-12-03T10:18:19.018Z,12.1
2018-12-03T10:19:18.263Z,12.1
2018-12-03T10:20:18.385Z,12.05
2018-12-03T10:21:18.119Z,12.06
2018-12-03T10:22:18.214Z,12.08
2018-12-03T10:23:18.339Z,12.09
2018-12-03T10:24:18.481Z,12.08
2018-12-03T10:25:18.253Z,12.07
2018-12-03T10:26:18.085Z,12.07
2018-12-03T10:27:18.208Z,12.09
2018-12-03T10:28:18.788Z,12.11
2018-12-03T10:29:18.312Z,12.08
2018-12-03T10:30:18.302Z,12.08
2018-12-03T10:31:18.034Z,12.08
2018-12-03T10:32:18.267Z,12.09
2018-12-03T10:33:18.227Z,12.09
2018-12-03T10:34:18.246Z,12.12
2018-12-03T10:35:18.289Z,12.14
2018-12-03T10:36:18.115Z,12.15
2018-12-03T10:37:18.121Z,12.14
2018-12-03T10:38:18.119Z,12.15
2018-12-03T10:39:18.238Z,12.17
2018-12-03T10:40:21.292Z,12.16
2018-12-03T10:41:18.005Z,12.19
2018-12-03T10:42:18.348Z,12.18
2018-12-03T10:43:18.164Z,12.15
2018-12-03T10:44:18.190Z,12.16
2018-12-03T10:45:18.085Z,12.15
2018-12-03T10:46:18.024Z,12.16
2018-12-03T10:47:18.663Z,12.16
2018-12-03T10:48:18.241Z,12.15
2018-12-03T10:49:18.223Z,12.14
2018-12-03T10:50:22.731Z,12.14
2018-12-03T10:51:18.254Z,12.16
2018-12-03T10:52:18.038Z,12.15
2018-12-03T10:53:18.294Z,12.15
2018-12-03T10:54:18.301Z,12.18
2018-12-03T10:55:18.410Z,12.14
2018-12-03T10:56:18.076Z,12.14
2018-12-03T10:57:18.306Z,12.17
2018-12-03T10:58:18.027Z,12.15
2018-12-03T10:59:18.023Z,12.15
2018-12-03T11:00:18.030Z,12.17
2018-12-03T11:01:18.044Z,12.15
2018-12-03T11:02:17.990Z,12.18
2018-12-03T11:03:18.014Z,12.18
2018-12-03T11:04:18.234Z,12.18
2018-12-03T11:05:17.993Z,12.15
2018-12-03T11:06:18.361Z,12.16
2018-12-03T11:07:18.128Z,12.16
2018-12-03T11:08:17.987Z,12.14
2018-12-03T11:09:18.001Z,12.16
2018-12-03T11:10:18.036Z,12.14
2018-12-03T11:11:18.147Z,12.16
2018-12-03T11:12:18.352Z,12.13
2018-12-03T11:13:18.221Z,12.13
2018-12-03T11:14:18.244Z,12.13
2018-12-03T11:15:17.975Z,12.11
2018-12-03T11:16:18.060Z,12.12
2018-12-03T11:17:17.957Z,12.1
2018-12-03T11:18:18.009Z,12.11
2018-12-03T11:19:17.965Z,12.11
2018-12-03T11:20:18.025Z,12.11
2018-12-03T11:21:18.355Z,12.09
2018-12-03T11:22:18.225Z,12.08
2018-12-03T11:23:18.048Z,12.08
2018-12-03T11:24:17.982Z,12.07
2018-12-03T11:25:18.271Z,12.05
2018-12-03T11:26:17.978Z,12.04
2018-12-03T11:27:18.197Z,12.04
2018-12-03T11:28:18.061Z,12.04
2018-12-03T11:29:18.063Z,12.02
2018-12-03T11:30:18.308Z,12.01
2018-12-03T11:31:18.374Z,12.01
2018-12-03T11:32:17.956Z,12
2018-12-03T11:33:17.997Z,12
2018-12-03T11:34:18.110Z,11.99
2018-12-03T11:35:18.299Z,11.92
2018-12-03T11:36:18.206Z,11.91
2018-12-03T11:37:18.046Z,11.88
2018-12-03T11:38:18.807Z,11.87
2018-12-03T11:39:18.204Z,11.87
2018-12-03T11:40:17.939Z,11.87
2018-12-03T11:41:18.001Z,11.88
2018-12-03T11:42:18.316Z,11.88
2018-12-03T11:43:18.322Z,11.85
2018-12-03T11:44:17.936Z,11.85
2018-12-03T11:45:18.169Z,11.83
2018-12-03T11:46:17.981Z,11.82
2018-12-03T11:47:18.122Z,11.83
2018-12-03T11:48:18.095Z,11.84
2018-12-03T11:49:18.370Z,11.83
2018-12-03T11:50:18.029Z,11.82
2018-12-03T11:51:17.915Z,11.82
2018-12-03T11:52:18.183Z,11.82
2018-12-03T11:53:18.716Z,11.81
2018-12-03T11:54:18.108Z,11.78
2018-12-03T11:55:18.048Z,11.82
2018-12-03T11:56:18.222Z,11.8
2018-12-03T11:57:17.983Z,11.82
2018-12-03T11:58:25.767Z,11.79
2018-12-03T11:59:18.331Z,11.8
2018-12-03T12:00:17.984Z,11.76
2018-12-03T12:01:18.058Z,11.78
2018-12-03T12:02:18.430Z,11.77
2018-12-03T12:03:18.160Z,11.76
2018-12-03T12:04:18.116Z,11.76
2018-12-03T12:05:18.033Z,11.77
2018-12-03T12:06:18.328Z,11.76
2018-12-03T12:07:18.153Z,11.76
2018-12-03T12:08:18.018Z,11.76
2018-12-03T12:09:21.540Z,11.76
2018-12-03T12:10:21.309Z,11.77
2018-12-03T12:11:18.351Z,11.78
2018-12-03T12:12:18.087Z,11.79
2018-12-03T12:13:18.110Z,11.78
2018-12-03T12:14:18.424Z,11.79
2018-12-03T12:15:18.121Z,11.81
2018-12-03T12:16:18.195Z,11.82
2018-12-03T12:17:18.165Z,11.83
2018-12-03T12:18:18.196Z,11.83
2018-12-03T12:19:18.109Z,11.85
2018-12-03T12:20:18.045Z,11.89
2018-12-03T12:21:17.890Z,11.93
2018-12-03T12:22:17.896Z,11.95
2018-12-03T12:23:17.906Z,11.96
2018-12-03T12:24:17.903Z,11.95
2018-12-03T12:25:18.347Z,11.99
2018-12-03T12:26:17.947Z,12.01
2018-12-03T12:27:18.058Z,12.03
2018-12-03T12:28:17.906Z,12.04
2018-12-03T12:29:17.955Z,12.07
2018-12-03T12:30:18.025Z,12.08
2018-12-03T12:31:18.066Z,12.09
2018-12-03T12:32:18.285Z,12.11
2018-12-03T12:33:18.524Z,12.1
2018-12-03T12:34:17.976Z,12.13
2018-12-03T12:35:18.328Z,12.14
2018-12-03T12:36:18.718Z,12.14
2018-12-03T12:37:17.991Z,12.15
2018-12-03T12:38:17.988Z,12.15
2018-12-03T12:39:17.920Z,12.16
2018-12-03T12:40:17.930Z,12.17
2018-12-03T12:41:17.903Z,12.16
2018-12-03T12:42:17.867Z,12.18
2018-12-03T12:43:17.942Z,12.17
2018-12-03T12:44:17.903Z,12.16
2018-12-03T12:45:18.004Z,12.19
2018-12-03T12:46:17.950Z,12.18
2018-12-03T12:47:17.880Z,12.2
2018-12-03T12:48:18.028Z,12.21
2018-12-03T12:49:17.955Z,12.21
2018-12-03T12:50:18.022Z,12.22
2018-12-03T12:51:18.037Z,12.25
2018-12-03T12:52:18.207Z,12.25
2018-12-03T12:53:17.901Z,12.28
2018-12-03T12:54:17.917Z,12.28